« Back
NWS Peachtree City, Ga » Text Product » ATL Terminal Aerodrome Forecast


Printer-friendly Version
Current Version              Previous Versions:   1  2  3  4  5  6  7  8  9  

Terminal Aerodrome Forecast

209
FTUS42 KFFC 292328
TAFATL
TAF
KATL 292328Z 3000/3106 12007KT P6SM FEW040
     FM300200 10004KT P6SM SKC
     FM300900 10004KT P6SM SCT012
     FM301400 14006KT P6SM SCT025
     FM302000 14007KT P6SM BKN035
     FM310200 15005KT P6SM FEW060=



USA.gov is the U.S. government's official web portal to all federal, state and local government web resources and services.